Terminal Aerodrome Forecast
Issued by NWS Sioux Falls, SD

Home | Current Version | Previous Version | Text Only | Print | Product List | Glossary Off
Versions: 1 2 3 4 5 6 7 8 9 10 11 12 13 14

000
FTUS43 KFSD 081120
TAFHON
TAF
KHON 081120Z 0812/0912 33011KT P6SM OVC015
     FM081700 31012G18KT P6SM OVC025
     FM082300 32014KT P6SM SCT200
     FM090700 33012KT P6SM BKN060=

USA.gov is the U.S. government's official web portal to all federal, state and local government web resources and services.